Orbital elements of FENGYUN 1C DEB
| Launched | 9 May 1999 |
| Flight ended | – |
| Launch site | Taiyuan Space Center, PRC |
| Owner | People's Republic of China |
| NORAD ID | 30525 |
| Date fetched |
Epoch osculation |
Inc. [°] |
Ecc. | RA asc node [hr] |
Arg Peri. [°] |
Mean anom [°] |
Mean motion [rev/day] |
Abs. mag |
| Date fetched |
Epoch osculation |
Inc. [°] |
Ecc. | RA asc node [hr] |
Arg Peri. [°] |
Mean anom [°] |
Mean motion [rev/day] |
Abs. mag |
| 2026 May 09 17:57 | 2026 May 04 14:12:24 | 98.5946 | 0.02913 | 23.8242 | 296.3912 | 60.7596 | 13.59060 | – |
| 2026 May 08 17:57 | 2026 May 04 14:12:24 | 98.5946 | 0.02913 | 23.8242 | 296.3912 | 60.7596 | 13.59060 | – |
| 2026 May 07 17:58 | 2026 May 04 14:12:24 | 98.5946 | 0.02913 | 23.8242 | 296.3912 | 60.7596 | 13.59060 | – |
| 2026 May 06 17:57 | 2026 May 04 14:12:24 | 98.5946 | 0.02913 | 23.8242 | 296.3912 | 60.7596 | 13.59060 | – |
| 2026 May 05 17:57 | 2026 May 04 14:12:24 | 98.5946 | 0.02913 | 23.8242 | 296.3912 | 60.7596 | 13.59060 | – |
| 2026 May 04 17:57 | 2026 Apr 30 14:47:48 | 98.5951 | 0.02917 | 23.5914 | 306.7936 | 60.7596 | 13.59060 | – |
| 2026 May 03 17:57 | 2026 Apr 30 14:47:48 | 98.5951 | 0.02917 | 23.5914 | 306.7936 | 60.7596 | 13.59060 | – |
| 2026 May 02 17:57 | 2026 Apr 30 14:47:48 | 98.5951 | 0.02917 | 23.5914 | 306.7936 | 60.7596 | 13.59060 | – |
| 2026 May 01 17:56 | 2026 Apr 30 14:47:48 | 98.5951 | 0.02917 | 23.5914 | 306.7936 | 60.7596 | 13.59060 | – |
| 2026 Apr 30 17:56 | 2026 Apr 30 14:47:48 | 98.5951 | 0.02917 | 23.5914 | 306.7936 | 60.7596 | 13.59060 | – |
| 2026 Apr 29 17:57 | 2026 Apr 23 02:34:39 | 98.5960 | 0.02925 | 23.1516 | 326.4146 | 60.7596 | 13.59060 | – |
| 2026 Apr 28 17:56 | 2026 Apr 23 02:34:39 | 98.5960 | 0.02925 | 23.1516 | 326.4146 | 60.7596 | 13.59060 | – |
| 2026 Apr 27 17:58 | 2026 Apr 23 02:34:39 | 98.5960 | 0.02925 | 23.1516 | 326.4146 | 60.7596 | 13.59060 | – |
| 2026 Apr 26 17:58 | 2026 Apr 23 02:34:39 | 98.5960 | 0.02925 | 23.1516 | 326.4146 | 60.7596 | 13.59060 | – |
| 2026 Apr 25 17:58 | 2026 Apr 23 02:34:39 | 98.5960 | 0.02925 | 23.1516 | 326.4146 | 60.7596 | 13.59060 | – |
| 2026 Apr 24 17:59 | 2026 Apr 23 02:34:39 | 98.5960 | 0.02925 | 23.1516 | 326.4146 | 60.7596 | 13.59060 | – |
| 2026 Apr 23 17:57 | 2026 Apr 18 14:47:55 | 98.5965 | 0.02930 | 22.8886 | 338.0976 | 60.7596 | 13.59060 | – |
| 2026 Apr 22 17:57 | 2026 Apr 18 14:47:55 | 98.5965 | 0.02930 | 22.8886 | 338.0976 | 60.7596 | 13.59060 | – |
| 2026 Apr 21 17:57 | 2026 Apr 18 14:47:55 | 98.5965 | 0.02930 | 22.8886 | 338.0976 | 60.7596 | 13.59060 | – |
| 2026 Apr 20 17:57 | 2026 Apr 18 14:47:55 | 98.5965 | 0.02930 | 22.8886 | 338.0976 | 60.7596 | 13.59060 | – |
| 2026 Apr 19 17:58 | 2026 Apr 18 14:47:55 | 98.5965 | 0.02930 | 22.8886 | 338.0976 | 60.7596 | 13.59060 | – |
| 2026 Apr 18 17:56 | 2026 Apr 12 13:54:52 | 98.5974 | 0.02934 | 22.5350 | 353.7949 | 60.7596 | 13.59060 | – |
| 2026 Apr 16 17:57 | 2026 Apr 12 13:54:52 | 98.5974 | 0.02934 | 22.5350 | 353.7949 | 60.7596 | 13.59060 | – |
| 2026 Apr 14 17:57 | 2026 Apr 12 13:54:52 | 98.5974 | 0.02934 | 22.5350 | 353.7949 | 60.7596 | 13.59060 | – |
| 2026 Apr 13 17:57 | 2026 Apr 12 13:54:52 | 98.5974 | 0.02934 | 22.5350 | 353.7949 | 60.7596 | 13.59060 | – |
| 2026 Apr 12 17:57 | 2026 Apr 08 14:30:09 | 98.5974 | 0.02937 | 22.3022 | 4.1049 | 60.7596 | 13.59060 | – |